sensor_id;sensor_type;location;lat;lon;timestamp;P1;durP1;ratioP1;P2;durP2;ratioP2
66559;SDS011;53413;49.878;8.142;2023-05-10T00:00:49;3.27;;;0.60;;
66559;SDS011;53413;49.878;8.142;2023-05-10T00:03:15;2.63;;;0.80;;
66559;SDS011;53413;49.878;8.142;2023-05-10T00:05:40;2.72;;;0.63;;
66559;SDS011;53413;49.878;8.142;2023-05-10T00:08:05;2.40;;;0.60;;
66559;SDS011;53413;49.878;8.142;2023-05-10T00:10:31;2.57;;;0.70;;
66559;SDS011;53413;49.878;8.142;2023-05-10T00:12:56;3.17;;;0.60;;
66559;SDS011;53413;49.878;8.142;2023-05-10T00:15:21;4.07;;;0.70;;
66559;SDS011;53413;49.878;8.142;2023-05-10T00:17:47;2.30;;;0.70;;
66559;SDS011;53413;49.878;8.142;2023-05-10T00:20:12;3.33;;;0.68;;
66559;SDS011;53413;49.878;8.142;2023-05-10T00:22:38;2.90;;;0.60;;
66559;SDS011;53413;49.878;8.142;2023-05-10T00:25:03;2.60;;;0.60;;
66559;SDS011;53413;49.878;8.142;2023-05-10T00:27:29;2.60;;;0.70;;
66559;SDS011;53413;49.878;8.142;2023-05-10T00:29:54;2.40;;;0.60;;
66559;SDS011;53413;49.878;8.142;2023-05-10T00:32:19;3.53;;;0.80;;
66559;SDS011;53413;49.878;8.142;2023-05-10T00:34:45;4.00;;;0.80;;
66559;SDS011;53413;49.878;8.142;2023-05-10T00:37:10;2.97;;;0.90;;
66559;SDS011;53413;49.878;8.142;2023-05-10T00:39:36;3.43;;;0.90;;
66559;SDS011;53413;49.878;8.142;2023-05-10T00:42:01;3.22;;;0.90;;
66559;SDS011;53413;49.878;8.142;2023-05-10T00:44:26;3.05;;;0.82;;
66559;SDS011;53413;49.878;8.142;2023-05-10T00:46:52;3.00;;;0.83;;
66559;SDS011;53413;49.878;8.142;2023-05-10T00:49:17;3.23;;;0.70;;
66559;SDS011;53413;49.878;8.142;2023-05-10T00:51:44;2.90;;;0.80;;
66559;SDS011;53413;49.878;8.142;2023-05-10T00:54:14;2.97;;;0.80;;
66559;SDS011;53413;49.878;8.142;2023-05-10T00:56:40;2.40;;;0.80;;
66559;SDS011;53413;49.878;8.142;2023-05-10T00:59:06;2.47;;;0.70;;
66559;SDS011;53413;49.878;8.142;2023-05-10T01:01:33;2.30;;;0.60;;
66559;SDS011;53413;49.878;8.142;2023-05-10T01:03:58;2.60;;;0.70;;
66559;SDS011;53413;49.878;8.142;2023-05-10T01:06:24;2.50;;;0.70;;
66559;SDS011;53413;49.878;8.142;2023-05-10T01:08:49;2.08;;;0.60;;
66559;SDS011;53413;49.878;8.142;2023-05-10T01:11:15;3.03;;;0.70;;
66559;SDS011;53413;49.878;8.142;2023-05-10T01:13:41;3.57;;;0.80;;
66559;SDS011;53413;49.878;8.142;2023-05-10T01:16:08;3.22;;;0.70;;
66559;SDS011;53413;49.878;8.142;2023-05-10T01:18:36;2.47;;;0.60;;
66559;SDS011;53413;49.878;8.142;2023-05-10T01:21:09;2.80;;;0.70;;
66559;SDS011;53413;49.878;8.142;2023-05-10T01:41:05;2.30;;;0.60;;
66559;SDS011;53413;49.878;8.142;2023-05-10T01:43:46;3.10;;;0.80;;
66559;SDS011;53413;49.878;8.142;2023-05-10T01:46:20;2.65;;;0.70;;
66559;SDS011;53413;49.878;8.142;2023-05-10T01:48:54;2.33;;;0.70;;
66559;SDS011;53413;49.878;8.142;2023-05-10T01:51:25;3.53;;;0.77;;
66559;SDS011;53413;49.878;8.142;2023-05-10T01:54:04;3.70;;;0.93;;
66559;SDS011;53413;49.878;8.142;2023-05-10T01:56:32;3.23;;;0.90;;
66559;SDS011;53413;49.878;8.142;2023-05-10T01:58:59;3.60;;;1.00;;
66559;SDS011;53413;49.878;8.142;2023-05-10T02:01:26;3.40;;;1.20;;
66559;SDS011;53413;49.878;8.142;2023-05-10T02:03:52;5.13;;;1.25;;
66559;SDS011;53413;49.878;8.142;2023-05-10T02:06:19;4.40;;;1.80;;
66559;SDS011;53413;49.878;8.142;2023-05-10T02:08:47;4.00;;;1.80;;
66559;SDS011;53413;49.878;8.142;2023-05-10T02:11:15;4.43;;;1.40;;
66559;SDS011;53413;49.878;8.142;2023-05-10T02:13:43;4.75;;;1.30;;
66559;SDS011;53413;49.878;8.142;2023-05-10T02:16:10;3.35;;;1.30;;
66559;SDS011;53413;49.878;8.142;2023-05-10T02:18:37;4.30;;;1.60;;
66559;SDS011;53413;49.878;8.142;2023-05-10T02:21:06;4.13;;;1.57;;
66559;SDS011;53413;49.878;8.142;2023-05-10T02:23:32;4.80;;;1.65;;
66559;SDS011;53413;49.878;8.142;2023-05-10T02:25:59;4.50;;;1.80;;
66559;SDS011;53413;49.878;8.142;2023-05-10T02:28:26;4.88;;;1.98;;
66559;SDS011;53413;49.878;8.142;2023-05-10T02:30:54;6.13;;;1.95;;
66559;SDS011;53413;49.878;8.142;2023-05-10T02:33:20;4.90;;;2.00;;
66559;SDS011;53413;49.878;8.142;2023-05-10T02:35:47;4.35;;;2.05;;
66559;SDS011;53413;49.878;8.142;2023-05-10T02:38:13;4.95;;;1.95;;
66559;SDS011;53413;49.878;8.142;2023-05-10T02:40:40;4.40;;;1.75;;
66559;SDS011;53413;49.878;8.142;2023-05-10T02:43:06;4.45;;;1.50;;
66559;SDS011;53413;49.878;8.142;2023-05-10T02:45:38;3.67;;;1.20;;
66559;SDS011;53413;49.878;8.142;2023-05-10T02:48:04;3.92;;;1.20;;
66559;SDS011;53413;49.878;8.142;2023-05-10T02:50:30;4.15;;;1.10;;
66559;SDS011;53413;49.878;8.142;2023-05-10T02:53:02;3.20;;;1.20;;
66559;SDS011;53413;49.878;8.142;2023-05-10T02:55:38;3.53;;;1.25;;
66559;SDS011;53413;49.878;8.142;2023-05-10T02:58:05;4.35;;;1.27;;
66559;SDS011;53413;49.878;8.142;2023-05-10T03:00:31;3.43;;;1.20;;
66559;SDS011;53413;49.878;8.142;2023-05-10T03:02:56;3.47;;;1.38;;
66559;SDS011;53413;49.878;8.142;2023-05-10T03:05:22;6.70;;;1.40;;
66559;SDS011;53413;49.878;8.142;2023-05-10T03:07:47;3.90;;;1.33;;
66559;SDS011;53413;49.878;8.142;2023-05-10T03:10:13;3.22;;;1.30;;
66559;SDS011;53413;49.878;8.142;2023-05-10T03:18:23;5.25;;;1.42;;
66559;SDS011;53413;49.878;8.142;2023-05-10T03:21:02;5.33;;;1.40;;
66559;SDS011;53413;49.878;8.142;2023-05-10T03:23:46;3.28;;;1.30;;
66559;SDS011;53413;49.878;8.142;2023-05-10T03:26:20;3.45;;;1.30;;
66559;SDS011;53413;49.878;8.142;2023-05-10T03:28:50;3.45;;;1.30;;
66559;SDS011;53413;49.878;8.142;2023-05-10T03:31:17;5.22;;;1.50;;
66559;SDS011;53413;49.878;8.142;2023-05-10T03:33:49;3.50;;;1.40;;
66559;SDS011;53413;49.878;8.142;2023-05-10T03:36:15;4.75;;;1.63;;
66559;SDS011;53413;49.878;8.142;2023-05-10T03:38:41;3.73;;;1.43;;
66559;SDS011;53413;49.878;8.142;2023-05-10T03:41:06;3.85;;;1.50;;
66559;SDS011;53413;49.878;8.142;2023-05-10T03:43:31;4.20;;;1.60;;
66559;SDS011;53413;49.878;8.142;2023-05-10T03:45:57;5.70;;;1.60;;
66559;SDS011;53413;49.878;8.142;2023-05-10T03:48:22;5.17;;;1.60;;
66559;SDS011;53413;49.878;8.142;2023-05-10T03:50:47;3.90;;;1.60;;
66559;SDS011;53413;49.878;8.142;2023-05-10T03:53:14;4.38;;;1.73;;
66559;SDS011;53413;49.878;8.142;2023-05-10T03:55:40;5.53;;;1.93;;
66559;SDS011;53413;49.878;8.142;2023-05-10T03:58:05;4.85;;;1.80;;
66559;SDS011;53413;49.878;8.142;2023-05-10T04:00:30;4.43;;;1.90;;
66559;SDS011;53413;49.878;8.142;2023-05-10T04:02:56;5.17;;;1.80;;
66559;SDS011;53413;49.878;8.142;2023-05-10T04:05:21;5.33;;;2.13;;
66559;SDS011;53413;49.878;8.142;2023-05-10T04:07:47;4.13;;;1.97;;
66559;SDS011;53413;49.878;8.142;2023-05-10T04:10:14;5.00;;;2.08;;
66559;SDS011;53413;49.878;8.142;2023-05-10T04:12:41;4.50;;;1.90;;
66559;SDS011;53413;49.878;8.142;2023-05-10T04:15:07;5.18;;;2.00;;
66559;SDS011;53413;49.878;8.142;2023-05-10T04:17:32;5.43;;;2.10;;
66559;SDS011;53413;49.878;8.142;2023-05-10T04:19:58;4.55;;;2.10;;
66559;SDS011;53413;49.878;8.142;2023-05-10T04:22:23;4.97;;;2.40;;
66559;SDS011;53413;49.878;8.142;2023-05-10T04:24:49;6.73;;;2.17;;
66559;SDS011;53413;49.878;8.142;2023-05-10T04:27:14;5.57;;;2.20;;
66559;SDS011;53413;49.878;8.142;2023-05-10T04:29:39;4.93;;;2.20;;
66559;SDS011;53413;49.878;8.142;2023-05-10T04:32:05;4.83;;;2.30;;
66559;SDS011;53413;49.878;8.142;2023-05-10T04:34:30;7.20;;;2.23;;
66559;SDS011;53413;49.878;8.142;2023-05-10T04:36:55;7.00;;;2.47;;
66559;SDS011;53413;49.878;8.142;2023-05-10T04:39:21;4.60;;;2.10;;
66559;SDS011;53413;49.878;8.142;2023-05-10T04:41:46;5.67;;;2.20;;
66559;SDS011;53413;49.878;8.142;2023-05-10T04:44:11;5.00;;;2.27;;
66559;SDS011;53413;49.878;8.142;2023-05-10T04:46:37;5.50;;;2.40;;
66559;SDS011;53413;49.878;8.142;2023-05-10T04:49:02;6.20;;;2.23;;
66559;SDS011;53413;49.878;8.142;2023-05-10T04:51:27;5.67;;;2.50;;
66559;SDS011;53413;49.878;8.142;2023-05-10T04:53:53;7.22;;;2.60;;
66559;SDS011;53413;49.878;8.142;2023-05-10T04:56:18;6.82;;;2.72;;
66559;SDS011;53413;49.878;8.142;2023-05-10T04:58:43;5.67;;;2.60;;
66559;SDS011;53413;49.878;8.142;2023-05-10T05:01:09;5.87;;;2.63;;
66559;SDS011;53413;49.878;8.142;2023-05-10T05:03:35;5.82;;;2.53;;
66559;SDS011;53413;49.878;8.142;2023-05-10T05:06:01;6.20;;;2.90;;
66559;SDS011;53413;49.878;8.142;2023-05-10T05:08:26;6.38;;;2.60;;
66559;SDS011;53413;49.878;8.142;2023-05-10T05:10:52;7.73;;;2.90;;
66559;SDS011;53413;49.878;8.142;2023-05-10T05:13:17;8.48;;;3.17;;
66559;SDS011;53413;49.878;8.142;2023-05-10T05:15:43;7.77;;;2.60;;
66559;SDS011;53413;49.878;8.142;2023-05-10T05:18:09;6.27;;;2.50;;
66559;SDS011;53413;49.878;8.142;2023-05-10T05:20:34;5.85;;;2.50;;
66559;SDS011;53413;49.878;8.142;2023-05-10T05:23:00;7.20;;;2.60;;
66559;SDS011;53413;49.878;8.142;2023-05-10T05:25:25;6.68;;;2.83;;
66559;SDS011;53413;49.878;8.142;2023-05-10T05:27:51;7.30;;;2.47;;
66559;SDS011;53413;49.878;8.142;2023-05-10T05:30:16;6.17;;;2.73;;
66559;SDS011;53413;49.878;8.142;2023-05-10T05:32:41;6.57;;;2.40;;
66559;SDS011;53413;49.878;8.142;2023-05-10T05:35:07;5.83;;;2.13;;
66559;SDS011;53413;49.878;8.142;2023-05-10T05:37:33;6.93;;;2.67;;
66559;SDS011;53413;49.878;8.142;2023-05-10T05:39:58;6.90;;;2.40;;
66559;SDS011;53413;49.878;8.142;2023-05-10T05:42:25;6.27;;;2.10;;
66559;SDS011;53413;49.878;8.142;2023-05-10T05:44:50;6.78;;;2.30;;
66559;SDS011;53413;49.878;8.142;2023-05-10T05:47:16;7.00;;;2.20;;
66559;SDS011;53413;49.878;8.142;2023-05-10T05:49:41;5.90;;;2.03;;
66559;SDS011;53413;49.878;8.142;2023-05-10T05:52:06;4.40;;;1.90;;
66559;SDS011;53413;49.878;8.142;2023-05-10T05:54:32;5.53;;;2.30;;
66559;SDS011;53413;49.878;8.142;2023-05-10T05:56:57;4.55;;;2.28;;
66559;SDS011;53413;49.878;8.142;2023-05-10T05:59:23;6.63;;;2.20;;
66559;SDS011;53413;49.878;8.142;2023-05-10T06:01:49;5.82;;;2.40;;
66559;SDS011;53413;49.878;8.142;2023-05-10T06:04:15;5.07;;;2.30;;
66559;SDS011;53413;49.878;8.142;2023-05-10T06:06:41;5.85;;;1.98;;
66559;SDS011;53413;49.878;8.142;2023-05-10T06:09:07;4.90;;;2.20;;
66559;SDS011;53413;49.878;8.142;2023-05-10T06:11:32;4.80;;;2.07;;
66559;SDS011;53413;49.878;8.142;2023-05-10T06:13:58;4.18;;;1.98;;
66559;SDS011;53413;49.878;8.142;2023-05-10T06:16:24;4.80;;;2.10;;
66559;SDS011;53413;49.878;8.142;2023-05-10T06:18:49;4.43;;;1.92;;
66559;SDS011;53413;49.878;8.142;2023-05-10T06:21:15;3.97;;;1.87;;
66559;SDS011;53413;49.878;8.142;2023-05-10T06:23:41;4.60;;;2.50;;
66559;SDS011;53413;49.878;8.142;2023-05-10T06:26:06;5.63;;;2.45;;
66559;SDS011;53413;49.878;8.142;2023-05-10T06:28:32;5.20;;;2.00;;
66559;SDS011;53413;49.878;8.142;2023-05-10T06:30:58;5.68;;;2.30;;
66559;SDS011;53413;49.878;8.142;2023-05-10T06:33:24;4.37;;;2.30;;
66559;SDS011;53413;49.878;8.142;2023-05-10T06:35:49;5.43;;;2.60;;
66559;SDS011;53413;49.878;8.142;2023-05-10T06:38:14;4.80;;;2.30;;
66559;SDS011;53413;49.878;8.142;2023-05-10T06:40:43;6.17;;;2.70;;
66559;SDS011;53413;49.878;8.142;2023-05-10T06:43:08;3.92;;;2.20;;
66559;SDS011;53413;49.878;8.142;2023-05-10T06:45:35;5.15;;;2.33;;
66559;SDS011;53413;49.878;8.142;2023-05-10T06:48:00;4.32;;;2.65;;
66559;SDS011;53413;49.878;8.142;2023-05-10T06:50:26;4.33;;;2.60;;
66559;SDS011;53413;49.878;8.142;2023-05-10T06:52:51;4.33;;;2.40;;
66559;SDS011;53413;49.878;8.142;2023-05-10T06:55:17;6.07;;;2.23;;
66559;SDS011;53413;49.878;8.142;2023-05-10T06:57:42;5.20;;;2.30;;
66559;SDS011;53413;49.878;8.142;2023-05-10T07:00:07;5.78;;;2.20;;
66559;SDS011;53413;49.878;8.142;2023-05-10T07:02:34;3.50;;;1.90;;
66559;SDS011;53413;49.878;8.142;2023-05-10T07:05:00;3.97;;;1.80;;
66559;SDS011;53413;49.878;8.142;2023-05-10T07:07:25;5.13;;;2.10;;
66559;SDS011;53413;49.878;8.142;2023-05-10T07:09:51;3.97;;;1.90;;
66559;SDS011;53413;49.878;8.142;2023-05-10T07:12:16;4.43;;;2.00;;
66559;SDS011;53413;49.878;8.142;2023-05-10T07:14:42;5.28;;;2.00;;
66559;SDS011;53413;49.878;8.142;2023-05-10T07:17:07;4.17;;;1.90;;
66559;SDS011;53413;49.878;8.142;2023-05-10T07:19:33;4.07;;;1.90;;
66559;SDS011;53413;49.878;8.142;2023-05-10T07:21:58;4.38;;;1.70;;
66559;SDS011;53413;49.878;8.142;2023-05-10T07:24:24;4.60;;;1.70;;
66559;SDS011;53413;49.878;8.142;2023-05-10T07:26:49;3.87;;;1.70;;
66559;SDS011;53413;49.878;8.142;2023-05-10T07:29:15;5.00;;;1.73;;
66559;SDS011;53413;49.878;8.142;2023-05-10T07:31:40;3.22;;;1.77;;
66559;SDS011;53413;49.878;8.142;2023-05-10T07:34:07;3.60;;;1.83;;
66559;SDS011;53413;49.878;8.142;2023-05-10T07:36:33;5.82;;;1.90;;
66559;SDS011;53413;49.878;8.142;2023-05-10T07:38:58;3.70;;;1.70;;
66559;SDS011;53413;49.878;8.142;2023-05-10T07:41:24;5.33;;;1.70;;
66559;SDS011;53413;49.878;8.142;2023-05-10T07:43:49;3.33;;;1.30;;
66559;SDS011;53413;49.878;8.142;2023-05-10T07:46:14;4.45;;;1.50;;
66559;SDS011;53413;49.878;8.142;2023-05-10T07:48:40;3.40;;;1.50;;
66559;SDS011;53413;49.878;8.142;2023-05-10T07:51:05;3.90;;;1.53;;
66559;SDS011;53413;49.878;8.142;2023-05-10T07:53:32;4.57;;;1.40;;
66559;SDS011;53413;49.878;8.142;2023-05-10T07:55:57;3.77;;;1.50;;
66559;SDS011;53413;49.878;8.142;2023-05-10T07:58:23;3.40;;;1.33;;
66559;SDS011;53413;49.878;8.142;2023-05-10T08:00:49;4.97;;;1.40;;
66559;SDS011;53413;49.878;8.142;2023-05-10T08:03:14;4.23;;;1.50;;
66559;SDS011;53413;49.878;8.142;2023-05-10T08:05:40;3.60;;;1.30;;
66559;SDS011;53413;49.878;8.142;2023-05-10T08:08:05;7.00;;;1.83;;
66559;SDS011;53413;49.878;8.142;2023-05-10T08:10:31;3.60;;;1.40;;
66559;SDS011;53413;49.878;8.142;2023-05-10T08:12:56;3.97;;;1.00;;
66559;SDS011;53413;49.878;8.142;2023-05-10T08:15:23;5.10;;;1.20;;
66559;SDS011;53413;49.878;8.142;2023-05-10T08:17:49;3.67;;;1.23;;
66559;SDS011;53413;49.878;8.142;2023-05-10T08:20:16;3.40;;;1.20;;
66559;SDS011;53413;49.878;8.142;2023-05-10T08:22:44;4.03;;;1.30;;
66559;SDS011;53413;49.878;8.142;2023-05-10T08:25:10;2.95;;;1.17;;
66559;SDS011;53413;49.878;8.142;2023-05-10T08:27:35;3.50;;;1.20;;
66559;SDS011;53413;49.878;8.142;2023-05-10T08:30:01;2.90;;;1.20;;
66559;SDS011;53413;49.878;8.142;2023-05-10T08:32:26;4.03;;;1.30;;
66559;SDS011;53413;49.878;8.142;2023-05-10T08:34:52;3.47;;;1.00;;
66559;SDS011;53413;49.878;8.142;2023-05-10T08:37:17;3.95;;;1.02;;
66559;SDS011;53413;49.878;8.142;2023-05-10T08:39:42;3.63;;;0.80;;
66559;SDS011;53413;49.878;8.142;2023-05-10T08:42:08;3.30;;;0.90;;
66559;SDS011;53413;49.878;8.142;2023-05-10T08:44:34;3.03;;;1.00;;
66559;SDS011;53413;49.878;8.142;2023-05-10T08:47:04;3.90;;;1.10;;
66559;SDS011;53413;49.878;8.142;2023-05-10T08:49:33;3.47;;;0.90;;
66559;SDS011;53413;49.878;8.142;2023-05-10T08:51:59;3.92;;;0.90;;
66559;SDS011;53413;49.878;8.142;2023-05-10T08:54:29;4.90;;;0.90;;
66559;SDS011;53413;49.878;8.142;2023-05-10T08:56:56;3.58;;;1.10;;
66559;SDS011;53413;49.878;8.142;2023-05-10T08:59:22;4.22;;;1.00;;
66559;SDS011;53413;49.878;8.142;2023-05-10T09:01:47;3.53;;;0.90;;
66559;SDS011;53413;49.878;8.142;2023-05-10T09:04:16;3.08;;;1.00;;
66559;SDS011;53413;49.878;8.142;2023-05-10T09:06:41;2.40;;;0.98;;
66559;SDS011;53413;49.878;8.142;2023-05-10T09:09:07;3.33;;;1.20;;
66559;SDS011;53413;49.878;8.142;2023-05-10T09:11:32;4.27;;;1.00;;
66559;SDS011;53413;49.878;8.142;2023-05-10T09:13:57;3.77;;;1.20;;
66559;SDS011;53413;49.878;8.142;2023-05-10T09:16:23;3.30;;;1.00;;
66559;SDS011;53413;49.878;8.142;2023-05-10T09:18:48;2.93;;;0.80;;
66559;SDS011;53413;49.878;8.142;2023-05-10T09:21:14;3.33;;;0.90;;
66559;SDS011;53413;49.878;8.142;2023-05-10T09:23:43;3.00;;;1.10;;
66559;SDS011;53413;49.878;8.142;2023-05-10T09:26:10;3.15;;;1.10;;
66559;SDS011;53413;49.878;8.142;2023-05-10T09:28:49;3.40;;;1.10;;
66559;SDS011;53413;49.878;8.142;2023-05-10T09:31:19;3.00;;;1.33;;
66559;SDS011;53413;49.878;8.142;2023-05-10T09:33:45;2.67;;;0.90;;
66559;SDS011;53413;49.878;8.142;2023-05-10T09:36:12;2.80;;;1.10;;
66559;SDS011;53413;49.878;8.142;2023-05-10T09:38:50;3.58;;;1.00;;
66559;SDS011;53413;49.878;8.142;2023-05-10T09:41:23;3.93;;;1.00;;
66559;SDS011;53413;49.878;8.142;2023-05-10T09:43:50;3.35;;;0.90;;
66559;SDS011;53413;49.878;8.142;2023-05-10T09:46:21;3.50;;;1.20;;
66559;SDS011;53413;49.878;8.142;2023-05-10T09:48:47;3.20;;;1.10;;
66559;SDS011;53413;49.878;8.142;2023-05-10T09:51:23;2.60;;;1.05;;
66559;SDS011;53413;49.878;8.142;2023-05-10T09:54:09;4.63;;;1.17;;
66559;SDS011;53413;49.878;8.142;2023-05-10T09:56:39;2.95;;;0.90;;
66559;SDS011;53413;49.878;8.142;2023-05-10T09:59:06;3.38;;;1.08;;
66559;SDS011;53413;49.878;8.142;2023-05-10T10:01:36;3.15;;;0.90;;
66559;SDS011;53413;49.878;8.142;2023-05-10T10:04:02;3.10;;;1.02;;
66559;SDS011;53413;49.878;8.142;2023-05-10T10:06:29;2.63;;;1.00;;
66559;SDS011;53413;49.878;8.142;2023-05-10T10:09:00;3.13;;;1.20;;
66559;SDS011;53413;49.878;8.142;2023-05-10T10:11:25;2.60;;;1.00;;
66559;SDS011;53413;49.878;8.142;2023-05-10T10:13:51;2.90;;;1.10;;
66559;SDS011;53413;49.878;8.142;2023-05-10T10:16:16;2.80;;;1.10;;
66559;SDS011;53413;49.878;8.142;2023-05-10T10:18:41;3.17;;;1.03;;
66559;SDS011;53413;49.878;8.142;2023-05-10T10:21:07;3.37;;;1.07;;
66559;SDS011;53413;49.878;8.142;2023-05-10T10:23:35;2.45;;;1.00;;
66559;SDS011;53413;49.878;8.142;2023-05-10T10:26:02;3.87;;;1.30;;
66559;SDS011;53413;49.878;8.142;2023-05-10T10:28:41;6.75;;;1.50;;
66559;SDS011;53413;49.878;8.142;2023-05-10T10:34:03;4.18;;;1.10;;
66559;SDS011;53413;49.878;8.142;2023-05-10T10:36:29;2.60;;;0.90;;
66559;SDS011;53413;49.878;8.142;2023-05-10T10:38:58;2.90;;;0.90;;
66559;SDS011;53413;49.878;8.142;2023-05-10T10:47:05;3.08;;;1.02;;
66559;SDS011;53413;49.878;8.142;2023-05-10T10:55:02;3.83;;;1.10;;
66559;SDS011;53413;49.878;8.142;2023-05-10T11:03:08;2.58;;;0.90;;
66559;SDS011;53413;49.878;8.142;2023-05-10T11:08:26;4.55;;;1.10;;
66559;SDS011;53413;49.878;8.142;2023-05-10T11:13:28;5.97;;;1.00;;
66559;SDS011;53413;49.878;8.142;2023-05-10T11:15:55;3.38;;;1.00;;
66559;SDS011;53413;49.878;8.142;2023-05-10T11:18:25;2.43;;;0.70;;
66559;SDS011;53413;49.878;8.142;2023-05-10T11:26:09;3.95;;;0.85;;
66559;SDS011;53413;49.878;8.142;2023-05-10T11:28:36;3.97;;;0.90;;
66559;SDS011;53413;49.878;8.142;2023-05-10T11:31:15;3.05;;;1.00;;
66559;SDS011;53413;49.878;8.142;2023-05-10T11:33:46;2.50;;;0.90;;
66559;SDS011;53413;49.878;8.142;2023-05-10T11:36:46;3.05;;;1.10;;
66559;SDS011;53413;49.878;8.142;2023-05-10T11:39:04;2.72;;;1.10;;
66559;SDS011;53413;49.878;8.142;2023-05-10T11:41:30;2.47;;;1.00;;
66559;SDS011;53413;49.878;8.142;2023-05-10T11:43:57;2.80;;;1.10;;
66559;SDS011;53413;49.878;8.142;2023-05-10T11:46:23;3.50;;;1.20;;
66559;SDS011;53413;49.878;8.142;2023-05-10T11:48:52;4.13;;;1.50;;
66559;SDS011;53413;49.878;8.142;2023-05-10T11:51:22;2.60;;;1.08;;
66559;SDS011;53413;49.878;8.142;2023-05-10T11:53:49;3.55;;;1.10;;
66559;SDS011;53413;49.878;8.142;2023-05-10T11:56:16;3.10;;;1.20;;
66559;SDS011;53413;49.878;8.142;2023-05-10T11:58:41;4.40;;;1.33;;
66559;SDS011;53413;49.878;8.142;2023-05-10T12:01:07;5.60;;;1.10;;
66559;SDS011;53413;49.878;8.142;2023-05-10T12:03:34;5.10;;;1.10;;
66559;SDS011;53413;49.878;8.142;2023-05-10T12:06:00;2.95;;;0.90;;
66559;SDS011;53413;49.878;8.142;2023-05-10T12:08:27;3.22;;;1.00;;
66559;SDS011;53413;49.878;8.142;2023-05-10T12:11:06;2.42;;;1.00;;
66559;SDS011;53413;49.878;8.142;2023-05-10T12:13:37;3.17;;;0.97;;
66559;SDS011;53413;49.878;8.142;2023-05-10T12:16:25;2.75;;;1.08;;
66559;SDS011;53413;49.878;8.142;2023-05-10T12:18:51;3.47;;;1.08;;
66559;SDS011;53413;49.878;8.142;2023-05-10T12:21:18;3.35;;;1.20;;
66559;SDS011;53413;49.878;8.142;2023-05-10T12:23:45;3.60;;;1.00;;
66559;SDS011;53413;49.878;8.142;2023-05-10T12:26:11;3.43;;;1.20;;
66559;SDS011;53413;49.878;8.142;2023-05-10T12:28:37;3.72;;;1.02;;
66559;SDS011;53413;49.878;8.142;2023-05-10T12:31:05;3.58;;;1.10;;
66559;SDS011;53413;49.878;8.142;2023-05-10T12:33:37;3.53;;;1.10;;
66559;SDS011;53413;49.878;8.142;2023-05-10T12:36:06;4.80;;;1.10;;
66559;SDS011;53413;49.878;8.142;2023-05-10T12:38:33;3.20;;;1.20;;
66559;SDS011;53413;49.878;8.142;2023-05-10T12:40:59;3.95;;;1.25;;
66559;SDS011;53413;49.878;8.142;2023-05-10T12:43:26;3.75;;;1.20;;
66559;SDS011;53413;49.878;8.142;2023-05-10T12:45:51;3.53;;;1.13;;
66559;SDS011;53413;49.878;8.142;2023-05-10T12:48:17;3.88;;;1.30;;
66559;SDS011;53413;49.878;8.142;2023-05-10T12:50:43;4.20;;;1.10;;
66559;SDS011;53413;49.878;8.142;2023-05-10T12:53:08;3.55;;;1.33;;
66559;SDS011;53413;49.878;8.142;2023-05-10T12:55:34;3.53;;;1.20;;
66559;SDS011;53413;49.878;8.142;2023-05-10T12:57:59;3.37;;;1.20;;
66559;SDS011;53413;49.878;8.142;2023-05-10T13:00:27;3.70;;;1.40;;
66559;SDS011;53413;49.878;8.142;2023-05-10T13:02:53;4.78;;;1.48;;
66559;SDS011;53413;49.878;8.142;2023-05-10T13:05:18;3.40;;;1.60;;
66559;SDS011;53413;49.878;8.142;2023-05-10T13:07:44;2.80;;;1.20;;
66559;SDS011;53413;49.878;8.142;2023-05-10T13:10:09;2.83;;;1.23;;
66559;SDS011;53413;49.878;8.142;2023-05-10T13:12:35;3.42;;;1.30;;
66559;SDS011;53413;49.878;8.142;2023-05-10T13:15:01;2.80;;;1.20;;
66559;SDS011;53413;49.878;8.142;2023-05-10T13:17:26;3.00;;;1.27;;
66559;SDS011;53413;49.878;8.142;2023-05-10T13:19:52;3.92;;;1.38;;
66559;SDS011;53413;49.878;8.142;2023-05-10T13:22:17;3.73;;;1.20;;
66559;SDS011;53413;49.878;8.142;2023-05-10T13:24:42;2.90;;;1.20;;
66559;SDS011;53413;49.878;8.142;2023-05-10T13:27:08;3.67;;;1.30;;
66559;SDS011;53413;49.878;8.142;2023-05-10T13:29:33;3.58;;;1.42;;
66559;SDS011;53413;49.878;8.142;2023-05-10T13:31:59;4.13;;;1.20;;
66559;SDS011;53413;49.878;8.142;2023-05-10T13:34:24;3.93;;;1.53;;
66559;SDS011;53413;49.878;8.142;2023-05-10T13:36:50;3.85;;;1.40;;
66559;SDS011;53413;49.878;8.142;2023-05-10T13:39:15;4.93;;;1.55;;
66559;SDS011;53413;49.878;8.142;2023-05-10T13:41:41;4.63;;;1.50;;
66559;SDS011;53413;49.878;8.142;2023-05-10T13:44:06;4.13;;;1.33;;
66559;SDS011;53413;49.878;8.142;2023-05-10T13:46:32;4.78;;;1.50;;
66559;SDS011;53413;49.878;8.142;2023-05-10T13:48:57;3.20;;;1.60;;
66559;SDS011;53413;49.878;8.142;2023-05-10T13:51:22;4.30;;;1.40;;
66559;SDS011;53413;49.878;8.142;2023-05-10T13:53:48;5.13;;;1.50;;
66559;SDS011;53413;49.878;8.142;2023-05-10T13:56:13;4.13;;;1.40;;
66559;SDS011;53413;49.878;8.142;2023-05-10T13:58:39;5.95;;;1.40;;
66559;SDS011;53413;49.878;8.142;2023-05-10T14:01:04;5.30;;;1.50;;
66559;SDS011;53413;49.878;8.142;2023-05-10T14:03:30;5.40;;;1.30;;
66559;SDS011;53413;49.878;8.142;2023-05-10T14:05:56;3.72;;;1.27;;
66559;SDS011;53413;49.878;8.142;2023-05-10T14:08:21;5.07;;;1.40;;
66559;SDS011;53413;49.878;8.142;2023-05-10T14:10:47;5.05;;;1.40;;
66559;SDS011;53413;49.878;8.142;2023-05-10T14:13:14;5.20;;;1.30;;
66559;SDS011;53413;49.878;8.142;2023-05-10T14:15:40;3.58;;;1.20;;
66559;SDS011;53413;49.878;8.142;2023-05-10T14:18:05;3.70;;;1.10;;
66559;SDS011;53413;49.878;8.142;2023-05-10T14:20:31;4.00;;;1.30;;
66559;SDS011;53413;49.878;8.142;2023-05-10T14:22:58;3.58;;;1.15;;
66559;SDS011;53413;49.878;8.142;2023-05-10T14:25:24;4.35;;;1.40;;
66559;SDS011;53413;49.878;8.142;2023-05-10T14:27:49;3.23;;;1.30;;
66559;SDS011;53413;49.878;8.142;2023-05-10T14:30:15;3.73;;;1.20;;
66559;SDS011;53413;49.878;8.142;2023-05-10T14:32:40;4.50;;;1.30;;
66559;SDS011;53413;49.878;8.142;2023-05-10T14:35:05;4.30;;;1.30;;
66559;SDS011;53413;49.878;8.142;2023-05-10T14:37:31;4.93;;;1.20;;
66559;SDS011;53413;49.878;8.142;2023-05-10T14:39:57;3.97;;;1.27;;
66559;SDS011;53413;49.878;8.142;2023-05-10T14:42:22;3.70;;;1.17;;
66559;SDS011;53413;49.878;8.142;2023-05-10T14:44:48;3.27;;;1.33;;
66559;SDS011;53413;49.878;8.142;2023-05-10T14:47:13;4.00;;;1.27;;
66559;SDS011;53413;49.878;8.142;2023-05-10T14:49:39;3.80;;;1.40;;
66559;SDS011;53413;49.878;8.142;2023-05-10T14:52:05;4.18;;;1.42;;
66559;SDS011;53413;49.878;8.142;2023-05-10T14:54:30;4.30;;;1.40;;
66559;SDS011;53413;49.878;8.142;2023-05-10T14:56:58;4.75;;;1.60;;
66559;SDS011;53413;49.878;8.142;2023-05-10T14:59:23;5.40;;;1.43;;
66559;SDS011;53413;49.878;8.142;2023-05-10T15:01:49;5.27;;;1.50;;
66559;SDS011;53413;49.878;8.142;2023-05-10T15:04:14;4.13;;;1.37;;
66559;SDS011;53413;49.878;8.142;2023-05-10T15:06:41;3.78;;;1.70;;
66559;SDS011;53413;49.878;8.142;2023-05-10T15:09:07;4.25;;;1.65;;
66559;SDS011;53413;49.878;8.142;2023-05-10T15:11:32;4.17;;;1.60;;
66559;SDS011;53413;49.878;8.142;2023-05-10T15:13:57;3.87;;;1.30;;
66559;SDS011;53413;49.878;8.142;2023-05-10T15:16:23;3.40;;;1.30;;
66559;SDS011;53413;49.878;8.142;2023-05-10T15:18:48;4.20;;;1.40;;
66559;SDS011;53413;49.878;8.142;2023-05-10T15:21:14;4.15;;;1.50;;
66559;SDS011;53413;49.878;8.142;2023-05-10T15:23:40;4.90;;;1.30;;
66559;SDS011;53413;49.878;8.142;2023-05-10T15:26:05;4.15;;;1.35;;
66559;SDS011;53413;49.878;8.142;2023-05-10T15:28:30;4.37;;;1.20;;
66559;SDS011;53413;49.878;8.142;2023-05-10T15:30:56;3.90;;;1.10;;
66559;SDS011;53413;49.878;8.142;2023-05-10T15:33:21;4.63;;;1.13;;
66559;SDS011;53413;49.878;8.142;2023-05-10T15:35:47;3.55;;;1.20;;
66559;SDS011;53413;49.878;8.142;2023-05-10T15:38:13;3.20;;;1.20;;